sensor_id;sensor_type;location;lat;lon;timestamp;P1;durP1;ratioP1;P2;durP2;ratioP2
9496;SDS011;4786;51.270;4.456;2022-08-21T00:00:08;4.63;;;2.90;;
9496;SDS011;4786;51.270;4.456;2022-08-21T00:02:44;6.50;;;3.00;;
9496;SDS011;4786;51.270;4.456;2022-08-21T00:05:14;7.70;;;3.00;;
9496;SDS011;4786;51.270;4.456;2022-08-21T00:07:41;5.73;;;2.73;;
9496;SDS011;4786;51.270;4.456;2022-08-21T00:10:08;7.43;;;2.87;;
9496;SDS011;4786;51.270;4.456;2022-08-21T00:12:35;5.63;;;2.87;;
9496;SDS011;4786;51.270;4.456;2022-08-21T00:15:01;5.93;;;3.10;;
9496;SDS011;4786;51.270;4.456;2022-08-21T00:17:28;5.73;;;2.90;;
9496;SDS011;4786;51.270;4.456;2022-08-21T00:19:54;5.70;;;3.20;;
9496;SDS011;4786;51.270;4.456;2022-08-21T00:22:20;5.33;;;2.90;;
9496;SDS011;4786;51.270;4.456;2022-08-21T00:24:46;6.70;;;2.70;;
9496;SDS011;4786;51.270;4.456;2022-08-21T00:27:12;3.63;;;2.80;;
9496;SDS011;4786;51.270;4.456;2022-08-21T00:29:38;6.73;;;3.30;;
9496;SDS011;4786;51.270;4.456;2022-08-21T00:32:04;4.83;;;2.80;;
9496;SDS011;4786;51.270;4.456;2022-08-21T00:34:30;8.00;;;3.20;;
9496;SDS011;4786;51.270;4.456;2022-08-21T00:36:57;4.20;;;2.70;;
9496;SDS011;4786;51.270;4.456;2022-08-21T00:39:22;5.07;;;2.90;;
9496;SDS011;4786;51.270;4.456;2022-08-21T00:41:48;6.27;;;3.20;;
9496;SDS011;4786;51.270;4.456;2022-08-21T00:44:14;6.07;;;3.00;;
9496;SDS011;4786;51.270;4.456;2022-08-21T00:46:41;7.57;;;3.60;;
9496;SDS011;4786;51.270;4.456;2022-08-21T00:49:08;5.63;;;2.93;;
9496;SDS011;4786;51.270;4.456;2022-08-21T00:51:49;6.00;;;3.17;;
9496;SDS011;4786;51.270;4.456;2022-08-21T00:54:18;5.00;;;3.00;;
9496;SDS011;4786;51.270;4.456;2022-08-21T00:57:00;4.87;;;2.93;;
9496;SDS011;4786;51.270;4.456;2022-08-21T00:59:30;7.97;;;3.50;;
9496;SDS011;4786;51.270;4.456;2022-08-21T01:02:00;6.43;;;3.13;;
9496;SDS011;4786;51.270;4.456;2022-08-21T01:04:26;5.00;;;2.80;;
9496;SDS011;4786;51.270;4.456;2022-08-21T01:06:52;4.73;;;2.90;;
9496;SDS011;4786;51.270;4.456;2022-08-21T01:09:18;5.27;;;2.70;;
9496;SDS011;4786;51.270;4.456;2022-08-21T01:11:45;4.83;;;2.90;;
9496;SDS011;4786;51.270;4.456;2022-08-21T01:14:11;6.80;;;2.80;;
9496;SDS011;4786;51.270;4.456;2022-08-21T01:16:39;7.53;;;3.13;;
9496;SDS011;4786;51.270;4.456;2022-08-21T01:19:07;6.73;;;3.07;;
9496;SDS011;4786;51.270;4.456;2022-08-21T01:21:34;7.40;;;3.33;;
9496;SDS011;4786;51.270;4.456;2022-08-21T01:24:00;5.83;;;3.03;;
9496;SDS011;4786;51.270;4.456;2022-08-21T01:26:28;5.33;;;3.10;;
9496;SDS011;4786;51.270;4.456;2022-08-21T01:31:25;5.90;;;3.00;;
9496;SDS011;4786;51.270;4.456;2022-08-21T01:33:54;6.70;;;2.97;;
9496;SDS011;4786;51.270;4.456;2022-08-21T01:36:22;7.87;;;3.07;;
9496;SDS011;4786;51.270;4.456;2022-08-21T01:38:48;5.97;;;3.13;;
9496;SDS011;4786;51.270;4.456;2022-08-21T01:41:15;5.60;;;2.83;;
9496;SDS011;4786;51.270;4.456;2022-08-21T01:43:41;5.37;;;3.30;;
9496;SDS011;4786;51.270;4.456;2022-08-21T01:46:08;7.83;;;3.37;;
9496;SDS011;4786;51.270;4.456;2022-08-21T01:48:35;13.27;;;3.00;;
9496;SDS011;4786;51.270;4.456;2022-08-21T01:51:02;8.80;;;3.20;;
9496;SDS011;4786;51.270;4.456;2022-08-21T01:53:28;4.37;;;2.93;;
9496;SDS011;4786;51.270;4.456;2022-08-21T01:55:55;5.50;;;2.77;;
9496;SDS011;4786;51.270;4.456;2022-08-21T01:58:21;4.43;;;3.10;;
9496;SDS011;4786;51.270;4.456;2022-08-21T02:00:47;5.93;;;3.00;;
9496;SDS011;4786;51.270;4.456;2022-08-21T02:03:14;5.33;;;3.33;;
9496;SDS011;4786;51.270;4.456;2022-08-21T02:05:40;3.93;;;2.93;;
9496;SDS011;4786;51.270;4.456;2022-08-21T02:08:06;6.47;;;3.30;;
9496;SDS011;4786;51.270;4.456;2022-08-21T02:10:33;6.43;;;3.03;;
9496;SDS011;4786;51.270;4.456;2022-08-21T02:13:00;7.43;;;2.53;;
9496;SDS011;4786;51.270;4.456;2022-08-21T02:15:26;4.87;;;2.50;;
9496;SDS011;4786;51.270;4.456;2022-08-21T02:17:55;8.20;;;3.00;;
9496;SDS011;4786;51.270;4.456;2022-08-21T02:20:30;5.67;;;2.93;;
9496;SDS011;4786;51.270;4.456;2022-08-21T02:22:58;4.30;;;2.57;;
9496;SDS011;4786;51.270;4.456;2022-08-21T02:25:25;7.27;;;3.13;;
9496;SDS011;4786;51.270;4.456;2022-08-21T02:27:52;3.80;;;2.80;;
9496;SDS011;4786;51.270;4.456;2022-08-21T02:30:23;6.57;;;3.00;;
9496;SDS011;4786;51.270;4.456;2022-08-21T02:32:55;7.23;;;3.03;;
9496;SDS011;4786;51.270;4.456;2022-08-21T02:35:23;6.30;;;3.27;;
9496;SDS011;4786;51.270;4.456;2022-08-21T02:37:50;4.27;;;2.90;;
9496;SDS011;4786;51.270;4.456;2022-08-21T02:40:31;7.13;;;3.10;;
9496;SDS011;4786;51.270;4.456;2022-08-21T02:43:00;5.80;;;2.70;;
9496;SDS011;4786;51.270;4.456;2022-08-21T02:45:29;5.00;;;2.60;;
9496;SDS011;4786;51.270;4.456;2022-08-21T02:47:57;4.60;;;2.53;;
9496;SDS011;4786;51.270;4.456;2022-08-21T02:50:29;3.90;;;2.60;;
9496;SDS011;4786;51.270;4.456;2022-08-21T02:52:58;6.27;;;2.80;;
9496;SDS011;4786;51.270;4.456;2022-08-21T02:55:26;5.17;;;2.30;;
9496;SDS011;4786;51.270;4.456;2022-08-21T02:57:54;5.13;;;2.47;;
9496;SDS011;4786;51.270;4.456;2022-08-21T03:00:22;4.70;;;2.60;;
9496;SDS011;4786;51.270;4.456;2022-08-21T03:02:50;3.53;;;2.47;;
9496;SDS011;4786;51.270;4.456;2022-08-21T03:05:17;3.90;;;2.40;;
9496;SDS011;4786;51.270;4.456;2022-08-21T03:07:44;7.33;;;3.20;;
9496;SDS011;4786;51.270;4.456;2022-08-21T03:10:12;5.53;;;2.53;;
9496;SDS011;4786;51.270;4.456;2022-08-21T03:12:39;4.27;;;2.50;;
9496;SDS011;4786;51.270;4.456;2022-08-21T03:15:07;4.47;;;2.30;;
9496;SDS011;4786;51.270;4.456;2022-08-21T03:17:37;6.73;;;2.80;;
9496;SDS011;4786;51.270;4.456;2022-08-21T03:20:04;4.53;;;2.50;;
9496;SDS011;4786;51.270;4.456;2022-08-21T03:22:30;5.37;;;2.60;;
9496;SDS011;4786;51.270;4.456;2022-08-21T03:24:57;5.93;;;2.50;;
9496;SDS011;4786;51.270;4.456;2022-08-21T03:27:23;5.93;;;2.60;;
9496;SDS011;4786;51.270;4.456;2022-08-21T03:29:49;5.67;;;2.63;;
9496;SDS011;4786;51.270;4.456;2022-08-21T03:32:15;5.37;;;2.23;;
9496;SDS011;4786;51.270;4.456;2022-08-21T03:34:41;6.27;;;2.30;;
9496;SDS011;4786;51.270;4.456;2022-08-21T03:37:07;6.33;;;2.60;;
9496;SDS011;4786;51.270;4.456;2022-08-21T03:39:33;4.40;;;2.63;;
9496;SDS011;4786;51.270;4.456;2022-08-21T03:42:00;4.77;;;2.50;;
9496;SDS011;4786;51.270;4.456;2022-08-21T03:44:26;6.23;;;2.30;;
9496;SDS011;4786;51.270;4.456;2022-08-21T03:46:53;4.93;;;2.30;;
9496;SDS011;4786;51.270;4.456;2022-08-21T03:49:20;6.97;;;2.30;;
9496;SDS011;4786;51.270;4.456;2022-08-21T03:51:46;6.37;;;2.53;;
9496;SDS011;4786;51.270;4.456;2022-08-21T03:54:12;4.20;;;2.00;;
9496;SDS011;4786;51.270;4.456;2022-08-21T03:56:37;5.37;;;2.20;;
9496;SDS011;4786;51.270;4.456;2022-08-21T03:59:04;4.93;;;2.30;;
9496;SDS011;4786;51.270;4.456;2022-08-21T04:01:31;4.50;;;2.20;;
9496;SDS011;4786;51.270;4.456;2022-08-21T04:03:57;10.77;;;2.40;;
9496;SDS011;4786;51.270;4.456;2022-08-21T04:06:23;5.83;;;2.33;;
9496;SDS011;4786;51.270;4.456;2022-08-21T04:08:48;7.67;;;2.60;;
9496;SDS011;4786;51.270;4.456;2022-08-21T04:11:14;5.90;;;2.30;;
9496;SDS011;4786;51.270;4.456;2022-08-21T04:13:40;7.17;;;2.50;;
9496;SDS011;4786;51.270;4.456;2022-08-21T04:16:07;5.17;;;2.30;;
9496;SDS011;4786;51.270;4.456;2022-08-21T04:18:33;6.37;;;2.70;;
9496;SDS011;4786;51.270;4.456;2022-08-21T04:20:59;6.70;;;2.40;;
9496;SDS011;4786;51.270;4.456;2022-08-21T04:23:26;4.90;;;2.40;;
9496;SDS011;4786;51.270;4.456;2022-08-21T04:25:53;5.97;;;2.37;;
9496;SDS011;4786;51.270;4.456;2022-08-21T04:28:21;6.27;;;2.40;;
9496;SDS011;4786;51.270;4.456;2022-08-21T04:30:48;7.47;;;2.70;;
9496;SDS011;4786;51.270;4.456;2022-08-21T04:33:15;7.47;;;3.10;;
9496;SDS011;4786;51.270;4.456;2022-08-21T04:35:41;5.33;;;2.90;;
9496;SDS011;4786;51.270;4.456;2022-08-21T04:38:07;5.20;;;2.13;;
9496;SDS011;4786;51.270;4.456;2022-08-21T04:40:33;3.23;;;1.90;;
9496;SDS011;4786;51.270;4.456;2022-08-21T04:43:08;6.00;;;2.53;;
9496;SDS011;4786;51.270;4.456;2022-08-21T04:45:41;7.53;;;2.30;;
9496;SDS011;4786;51.270;4.456;2022-08-21T04:48:11;4.73;;;2.20;;
9496;SDS011;4786;51.270;4.456;2022-08-21T04:50:42;3.80;;;2.17;;
9496;SDS011;4786;51.270;4.456;2022-08-21T04:53:22;6.47;;;2.40;;
9496;SDS011;4786;51.270;4.456;2022-08-21T04:55:52;5.60;;;2.40;;
9496;SDS011;4786;51.270;4.456;2022-08-21T04:58:20;6.20;;;2.57;;
9496;SDS011;4786;51.270;4.456;2022-08-21T05:00:47;4.67;;;2.27;;
9496;SDS011;4786;51.270;4.456;2022-08-21T05:03:13;5.43;;;2.40;;
9496;SDS011;4786;51.270;4.456;2022-08-21T05:05:41;7.90;;;2.33;;
9496;SDS011;4786;51.270;4.456;2022-08-21T05:08:08;5.57;;;2.40;;
9496;SDS011;4786;51.270;4.456;2022-08-21T05:10:38;7.97;;;3.00;;
9496;SDS011;4786;51.270;4.456;2022-08-21T05:13:05;4.83;;;2.60;;
9496;SDS011;4786;51.270;4.456;2022-08-21T05:15:32;5.63;;;2.23;;
9496;SDS011;4786;51.270;4.456;2022-08-21T05:17:58;6.30;;;2.43;;
9496;SDS011;4786;51.270;4.456;2022-08-21T05:20:24;4.60;;;2.50;;
9496;SDS011;4786;51.270;4.456;2022-08-21T05:22:49;6.27;;;2.53;;
9496;SDS011;4786;51.270;4.456;2022-08-21T05:25:15;5.53;;;2.60;;
9496;SDS011;4786;51.270;4.456;2022-08-21T05:27:41;6.90;;;2.63;;
9496;SDS011;4786;51.270;4.456;2022-08-21T05:30:08;6.47;;;2.30;;
9496;SDS011;4786;51.270;4.456;2022-08-21T05:32:35;7.23;;;2.37;;
9496;SDS011;4786;51.270;4.456;2022-08-21T05:35:03;4.60;;;2.30;;
9496;SDS011;4786;51.270;4.456;2022-08-21T05:37:31;6.80;;;2.53;;
9496;SDS011;4786;51.270;4.456;2022-08-21T05:39:57;5.10;;;2.20;;
9496;SDS011;4786;51.270;4.456;2022-08-21T05:42:23;6.27;;;2.50;;
9496;SDS011;4786;51.270;4.456;2022-08-21T05:44:49;7.20;;;2.43;;
9496;SDS011;4786;51.270;4.456;2022-08-21T05:47:15;6.17;;;2.33;;
9496;SDS011;4786;51.270;4.456;2022-08-21T05:49:41;7.73;;;2.60;;
9496;SDS011;4786;51.270;4.456;2022-08-21T05:52:07;9.73;;;3.00;;
9496;SDS011;4786;51.270;4.456;2022-08-21T05:54:34;7.87;;;2.80;;
9496;SDS011;4786;51.270;4.456;2022-08-21T05:57:02;6.17;;;2.20;;
9496;SDS011;4786;51.270;4.456;2022-08-21T05:59:28;5.90;;;2.40;;
9496;SDS011;4786;51.270;4.456;2022-08-21T06:01:54;4.50;;;2.10;;
9496;SDS011;4786;51.270;4.456;2022-08-21T06:04:20;5.57;;;2.20;;
9496;SDS011;4786;51.270;4.456;2022-08-21T06:06:46;8.33;;;2.77;;
9496;SDS011;4786;51.270;4.456;2022-08-21T06:09:12;5.45;;;2.17;;
9496;SDS011;4786;51.270;4.456;2022-08-21T06:11:38;6.88;;;2.10;;
9496;SDS011;4786;51.270;4.456;2022-08-21T06:14:04;5.40;;;2.50;;
9496;SDS011;4786;51.270;4.456;2022-08-21T06:16:31;6.65;;;2.60;;
9496;SDS011;4786;51.270;4.456;2022-08-21T06:18:57;5.18;;;2.55;;
9496;SDS011;4786;51.270;4.456;2022-08-21T06:21:23;5.60;;;2.20;;
9496;SDS011;4786;51.270;4.456;2022-08-21T06:23:49;6.32;;;2.28;;
9496;SDS011;4786;51.270;4.456;2022-08-21T06:26:15;7.18;;;2.42;;
9496;SDS011;4786;51.270;4.456;2022-08-21T06:28:41;6.18;;;2.60;;
9496;SDS011;4786;51.270;4.456;2022-08-21T06:31:12;8.40;;;2.22;;
9496;SDS011;4786;51.270;4.456;2022-08-21T06:33:40;6.93;;;2.50;;
9496;SDS011;4786;51.270;4.456;2022-08-21T06:36:06;5.25;;;2.30;;
9496;SDS011;4786;51.270;4.456;2022-08-21T06:38:32;5.72;;;1.90;;
9496;SDS011;4786;51.270;4.456;2022-08-21T06:40:58;4.75;;;2.33;;
9496;SDS011;4786;51.270;4.456;2022-08-21T06:43:25;6.30;;;2.35;;
9496;SDS011;4786;51.270;4.456;2022-08-21T06:45:50;7.20;;;2.70;;
9496;SDS011;4786;51.270;4.456;2022-08-21T06:48:17;6.07;;;2.80;;
9496;SDS011;4786;51.270;4.456;2022-08-21T06:50:42;7.57;;;2.95;;
9496;SDS011;4786;51.270;4.456;2022-08-21T06:53:09;5.50;;;2.67;;
9496;SDS011;4786;51.270;4.456;2022-08-21T06:55:37;5.65;;;2.55;;
9496;SDS011;4786;51.270;4.456;2022-08-21T06:58:05;8.00;;;3.05;;
9496;SDS011;4786;51.270;4.456;2022-08-21T07:00:32;7.55;;;2.85;;
9496;SDS011;4786;51.270;4.456;2022-08-21T07:02:59;7.10;;;3.20;;
9496;SDS011;4786;51.270;4.456;2022-08-21T07:05:25;6.43;;;3.10;;
9496;SDS011;4786;51.270;4.456;2022-08-21T07:07:52;7.78;;;2.97;;
9496;SDS011;4786;51.270;4.456;2022-08-21T07:10:18;9.15;;;3.20;;
9496;SDS011;4786;51.270;4.456;2022-08-21T07:12:44;7.35;;;3.05;;
9496;SDS011;4786;51.270;4.456;2022-08-21T07:15:10;7.65;;;3.15;;
9496;SDS011;4786;51.270;4.456;2022-08-21T07:17:36;7.70;;;3.05;;
9496;SDS011;4786;51.270;4.456;2022-08-21T07:20:03;6.43;;;2.72;;
9496;SDS011;4786;51.270;4.456;2022-08-21T07:22:30;10.70;;;3.35;;
9496;SDS011;4786;51.270;4.456;2022-08-21T07:24:56;8.45;;;3.45;;
9496;SDS011;4786;51.270;4.456;2022-08-21T07:27:22;9.23;;;3.40;;
9496;SDS011;4786;51.270;4.456;2022-08-21T07:29:48;7.82;;;3.60;;
9496;SDS011;4786;51.270;4.456;2022-08-21T07:32:14;7.45;;;3.38;;
9496;SDS011;4786;51.270;4.456;2022-08-21T07:34:41;10.50;;;3.15;;
9496;SDS011;4786;51.270;4.456;2022-08-21T07:37:07;6.63;;;3.22;;
9496;SDS011;4786;51.270;4.456;2022-08-21T07:39:33;10.10;;;3.58;;
9496;SDS011;4786;51.270;4.456;2022-08-21T07:41:58;8.27;;;3.20;;
9496;SDS011;4786;51.270;4.456;2022-08-21T07:44:25;9.95;;;3.42;;
9496;SDS011;4786;51.270;4.456;2022-08-21T07:46:50;8.55;;;3.00;;
9496;SDS011;4786;51.270;4.456;2022-08-21T07:49:16;13.55;;;3.75;;
9496;SDS011;4786;51.270;4.456;2022-08-21T07:51:42;8.27;;;3.22;;
9496;SDS011;4786;51.270;4.456;2022-08-21T07:54:08;9.43;;;2.97;;
9496;SDS011;4786;51.270;4.456;2022-08-21T07:56:34;9.15;;;3.20;;
9496;SDS011;4786;51.270;4.456;2022-08-21T07:59:00;6.85;;;2.70;;
9496;SDS011;4786;51.270;4.456;2022-08-21T08:01:27;10.75;;;3.17;;
9496;SDS011;4786;51.270;4.456;2022-08-21T08:03:54;11.15;;;3.10;;
9496;SDS011;4786;51.270;4.456;2022-08-21T08:06:21;9.93;;;3.28;;
9496;SDS011;4786;51.270;4.456;2022-08-21T08:08:47;12.57;;;3.13;;
9496;SDS011;4786;51.270;4.456;2022-08-21T08:11:13;10.68;;;3.13;;
9496;SDS011;4786;51.270;4.456;2022-08-21T08:13:46;7.53;;;2.80;;
9496;SDS011;4786;51.270;4.456;2022-08-21T08:16:14;8.80;;;2.75;;
9496;SDS011;4786;51.270;4.456;2022-08-21T08:18:41;9.52;;;3.15;;
9496;SDS011;4786;51.270;4.456;2022-08-21T08:21:07;11.27;;;3.42;;
9496;SDS011;4786;51.270;4.456;2022-08-21T08:23:35;8.00;;;3.10;;
9496;SDS011;4786;51.270;4.456;2022-08-21T08:26:01;10.65;;;2.97;;
9496;SDS011;4786;51.270;4.456;2022-08-21T08:28:30;7.97;;;3.17;;
9496;SDS011;4786;51.270;4.456;2022-08-21T08:30:57;7.75;;;3.15;;
9496;SDS011;4786;51.270;4.456;2022-08-21T08:33:24;11.18;;;3.00;;
9496;SDS011;4786;51.270;4.456;2022-08-21T08:35:51;8.55;;;2.90;;
9496;SDS011;4786;51.270;4.456;2022-08-21T08:38:18;7.53;;;2.97;;
9496;SDS011;4786;51.270;4.456;2022-08-21T08:43:17;10.73;;;3.47;;
9496;SDS011;4786;51.270;4.456;2022-08-21T08:45:45;9.35;;;2.75;;
9496;SDS011;4786;51.270;4.456;2022-08-21T08:48:16;9.65;;;3.30;;
9496;SDS011;4786;51.270;4.456;2022-08-21T08:50:59;7.40;;;2.65;;
9496;SDS011;4786;51.270;4.456;2022-08-21T08:53:28;6.50;;;2.60;;
9496;SDS011;4786;51.270;4.456;2022-08-21T08:55:57;7.40;;;2.47;;
9496;SDS011;4786;51.270;4.456;2022-08-21T08:58:27;6.00;;;2.60;;
9496;SDS011;4786;51.270;4.456;2022-08-21T09:00:59;8.57;;;2.40;;
9496;SDS011;4786;51.270;4.456;2022-08-21T09:03:26;8.98;;;3.15;;
9496;SDS011;4786;51.270;4.456;2022-08-21T09:11:29;5.00;;;2.10;;
9496;SDS011;4786;51.270;4.456;2022-08-21T09:17:19;9.32;;;2.55;;
9496;SDS011;4786;51.270;4.456;2022-08-21T09:23:07;8.68;;;2.60;;
9496;SDS011;4786;51.270;4.456;2022-08-21T09:28:25;11.00;;;2.70;;
9496;SDS011;4786;51.270;4.456;2022-08-21T09:30:51;4.57;;;2.28;;
9496;SDS011;4786;51.270;4.456;2022-08-21T09:33:20;5.53;;;2.30;;
9496;SDS011;4786;51.270;4.456;2022-08-21T09:35:53;10.27;;;2.75;;
9496;SDS011;4786;51.270;4.456;2022-08-21T09:38:35;9.38;;;2.70;;
9496;SDS011;4786;51.270;4.456;2022-08-21T09:41:04;7.55;;;2.67;;
9496;SDS011;4786;51.270;4.456;2022-08-21T09:43:34;6.20;;;2.90;;
9496;SDS011;4786;51.270;4.456;2022-08-21T09:48:37;6.50;;;3.47;;
9496;SDS011;4786;51.270;4.456;2022-08-21T09:51:13;9.68;;;3.42;;
9496;SDS011;4786;51.270;4.456;2022-08-21T09:53:48;8.68;;;3.30;;
9496;SDS011;4786;51.270;4.456;2022-08-21T09:59:24;8.10;;;2.97;;
9496;SDS011;4786;51.270;4.456;2022-08-21T10:01:59;6.88;;;3.22;;
9496;SDS011;4786;51.270;4.456;2022-08-21T10:04:29;6.80;;;3.17;;
9496;SDS011;4786;51.270;4.456;2022-08-21T10:07:13;10.27;;;3.75;;
9496;SDS011;4786;51.270;4.456;2022-08-21T10:09:40;8.48;;;3.47;;
9496;SDS011;4786;51.270;4.456;2022-08-21T10:12:10;5.60;;;2.80;;
9496;SDS011;4786;51.270;4.456;2022-08-21T10:17:14;8.73;;;3.42;;
9496;SDS011;4786;51.270;4.456;2022-08-21T10:20:13;9.00;;;3.03;;
9496;SDS011;4786;51.270;4.456;2022-08-21T10:31:37;7.20;;;3.10;;
9496;SDS011;4786;51.270;4.456;2022-08-21T10:34:09;11.43;;;3.50;;
9496;SDS011;4786;51.270;4.456;2022-08-21T10:37:04;9.70;;;3.60;;
9496;SDS011;4786;51.270;4.456;2022-08-21T10:39:37;11.48;;;3.53;;
9496;SDS011;4786;51.270;4.456;2022-08-21T10:45:38;7.75;;;3.63;;
9496;SDS011;4786;51.270;4.456;2022-08-21T10:48:16;8.82;;;3.83;;
9496;SDS011;4786;51.270;4.456;2022-08-21T10:54:02;10.50;;;4.15;;
9496;SDS011;4786;51.270;4.456;2022-08-21T10:57:09;8.15;;;3.55;;
9496;SDS011;4786;51.270;4.456;2022-08-21T10:59:47;9.90;;;3.72;;
9496;SDS011;4786;51.270;4.456;2022-08-21T11:02:28;9.75;;;3.65;;
9496;SDS011;4786;51.270;4.456;2022-08-21T11:07:43;10.70;;;4.03;;
9496;SDS011;4786;51.270;4.456;2022-08-21T11:12:59;11.85;;;5.10;;
9496;SDS011;4786;51.270;4.456;2022-08-21T11:18:40;10.05;;;3.97;;
9496;SDS011;4786;51.270;4.456;2022-08-21T11:29:46;8.38;;;3.92;;
9496;SDS011;4786;51.270;4.456;2022-08-21T11:32:23;8.63;;;3.95;;
9496;SDS011;4786;51.270;4.456;2022-08-21T11:38:10;9.23;;;4.30;;
9496;SDS011;4786;51.270;4.456;2022-08-21T11:43:26;9.65;;;3.90;;
9496;SDS011;4786;51.270;4.456;2022-08-21T11:51:58;9.98;;;3.70;;
9496;SDS011;4786;51.270;4.456;2022-08-21T11:54:50;8.88;;;3.60;;
9496;SDS011;4786;51.270;4.456;2022-08-21T11:57:25;11.80;;;3.67;;
9496;SDS011;4786;51.270;4.456;2022-08-21T12:00:03;5.72;;;3.25;;
9496;SDS011;4786;51.270;4.456;2022-08-21T12:02:37;8.13;;;3.30;;
9496;SDS011;4786;51.270;4.456;2022-08-21T12:05:07;7.45;;;3.30;;
9496;SDS011;4786;51.270;4.456;2022-08-21T12:10:10;8.07;;;3.10;;
9496;SDS011;4786;51.270;4.456;2022-08-21T12:12:39;9.23;;;3.60;;
9496;SDS011;4786;51.270;4.456;2022-08-21T12:17:55;8.70;;;2.90;;
9496;SDS011;4786;51.270;4.456;2022-08-21T12:20:35;6.95;;;2.70;;
9496;SDS011;4786;51.270;4.456;2022-08-21T12:25:41;8.45;;;3.45;;
9496;SDS011;4786;51.270;4.456;2022-08-21T12:28:28;7.72;;;3.17;;
9496;SDS011;4786;51.270;4.456;2022-08-21T12:30:56;7.00;;;2.72;;
9496;SDS011;4786;51.270;4.456;2022-08-21T12:33:40;6.70;;;2.88;;
9496;SDS011;4786;51.270;4.456;2022-08-21T12:41:28;6.85;;;2.80;;
9496;SDS011;4786;51.270;4.456;2022-08-21T12:44:08;7.88;;;2.90;;
9496;SDS011;4786;51.270;4.456;2022-08-21T12:46:43;7.13;;;3.08;;
9496;SDS011;4786;51.270;4.456;2022-08-21T12:49:19;5.95;;;3.00;;
9496;SDS011;4786;51.270;4.456;2022-08-21T12:52:13;6.95;;;3.00;;
9496;SDS011;4786;51.270;4.456;2022-08-21T12:54:45;10.65;;;3.00;;
9496;SDS011;4786;51.270;4.456;2022-08-21T12:57:29;6.38;;;2.97;;
9496;SDS011;4786;51.270;4.456;2022-08-21T12:59:56;7.00;;;3.00;;
9496;SDS011;4786;51.270;4.456;2022-08-21T13:02:28;7.55;;;3.30;;
9496;SDS011;4786;51.270;4.456;2022-08-21T13:05:02;6.55;;;2.55;;
9496;SDS011;4786;51.270;4.456;2022-08-21T13:07:32;7.47;;;2.80;;
9496;SDS011;4786;51.270;4.456;2022-08-21T13:10:01;8.05;;;3.00;;
9496;SDS011;4786;51.270;4.456;2022-08-21T13:12:31;7.60;;;2.63;;
9496;SDS011;4786;51.270;4.456;2022-08-21T13:15:00;6.57;;;2.25;;
9496;SDS011;4786;51.270;4.456;2022-08-21T13:17:31;6.80;;;2.65;;
9496;SDS011;4786;51.270;4.456;2022-08-21T13:20:00;7.05;;;2.65;;
9496;SDS011;4786;51.270;4.456;2022-08-21T13:22:47;7.20;;;2.63;;
9496;SDS011;4786;51.270;4.456;2022-08-21T13:25:14;6.63;;;2.63;;
9496;SDS011;4786;51.270;4.456;2022-08-21T13:27:44;7.90;;;2.55;;
9496;SDS011;4786;51.270;4.456;2022-08-21T13:30:22;5.15;;;2.40;;
9496;SDS011;4786;51.270;4.456;2022-08-21T13:32:49;6.15;;;2.30;;
9496;SDS011;4786;51.270;4.456;2022-08-21T13:37:50;9.68;;;3.42;;
9496;SDS011;4786;51.270;4.456;2022-08-21T13:40:19;7.50;;;3.05;;
9496;SDS011;4786;51.270;4.456;2022-08-21T13:43:09;8.15;;;2.50;;
9496;SDS011;4786;51.270;4.456;2022-08-21T13:45:38;7.10;;;2.53;;
9496;SDS011;4786;51.270;4.456;2022-08-21T13:48:04;7.25;;;2.42;;
9496;SDS011;4786;51.270;4.456;2022-08-21T13:50:32;7.70;;;2.70;;
9496;SDS011;4786;51.270;4.456;2022-08-21T13:53:04;7.53;;;2.88;;
9496;SDS011;4786;51.270;4.456;2022-08-21T13:55:42;6.82;;;2.67;;
9496;SDS011;4786;51.270;4.456;2022-08-21T13:58:09;5.68;;;2.30;;
9496;SDS011;4786;51.270;4.456;2022-08-21T14:00:57;6.63;;;2.60;;
9496;SDS011;4786;51.270;4.456;2022-08-21T14:06:02;6.70;;;2.60;;
9496;SDS011;4786;51.270;4.456;2022-08-21T14:08:37;6.38;;;2.72;;
9496;SDS011;4786;51.270;4.456;2022-08-21T14:11:10;4.75;;;2.20;;
9496;SDS011;4786;51.270;4.456;2022-08-21T14:13:45;5.88;;;2.17;;
9496;SDS011;4786;51.270;4.456;2022-08-21T14:16:22;5.32;;;2.55;;
9496;SDS011;4786;51.270;4.456;2022-08-21T14:21:35;4.20;;;2.40;;
9496;SDS011;4786;51.270;4.456;2022-08-21T14:24:11;6.30;;;2.65;;
9496;SDS011;4786;51.270;4.456;2022-08-21T14:26:43;5.28;;;2.50;;
9496;SDS011;4786;51.270;4.456;2022-08-21T14:29:21;4.10;;;2.05;;
9496;SDS011;4786;51.270;4.456;2022-08-21T14:31:59;6.18;;;2.63;;
9496;SDS011;4786;51.270;4.456;2022-08-21T14:34:33;6.95;;;2.80;;
9496;SDS011;4786;51.270;4.456;2022-08-21T14:36:59;10.13;;;3.17;;
9496;SDS011;4786;51.270;4.456;2022-08-21T14:39:25;6.78;;;2.92;;
9496;SDS011;4786;51.270;4.456;2022-08-21T14:41:51;7.70;;;3.20;;
9496;SDS011;4786;51.270;4.456;2022-08-21T14:44:18;5.63;;;2.50;;
9496;SDS011;4786;51.270;4.456;2022-08-21T14:46:44;5.05;;;2.40;;
9496;SDS011;4786;51.270;4.456;2022-08-21T14:49:11;6.50;;;2.63;;
9496;SDS011;4786;51.270;4.456;2022-08-21T14:51:37;9.48;;;3.25;;
9496;SDS011;4786;51.270;4.456;2022-08-21T14:54:04;6.20;;;2.63;;
9496;SDS011;4786;51.270;4.456;2022-08-21T14:56:31;8.13;;;3.35;;
9496;SDS011;4786;51.270;4.456;2022-08-21T14:58:59;8.55;;;3.10;;
9496;SDS011;4786;51.270;4.456;2022-08-21T15:01:29;6.88;;;2.35;;
9496;SDS011;4786;51.270;4.456;2022-08-21T15:03:57;6.30;;;2.90;;
9496;SDS011;4786;51.270;4.456;2022-08-21T15:06:23;9.60;;;2.90;;
9496;SDS011;4786;51.270;4.456;2022-08-21T15:08:49;5.80;;;2.65;;
9496;SDS011;4786;51.270;4.456;2022-08-21T15:11:17;6.90;;;2.72;;
9496;SDS011;4786;51.270;4.456;2022-08-21T15:13:45;9.13;;;3.00;;
9496;SDS011;4786;51.270;4.456;2022-08-21T15:16:12;9.00;;;3.13;;
9496;SDS011;4786;51.270;4.456;2022-08-21T15:18:38;10.82;;;3.08;;
9496;SDS011;4786;51.270;4.456;2022-08-21T15:21:05;5.38;;;2.55;;
9496;SDS011;4786;51.270;4.456;2022-08-21T15:23:30;6.32;;;2.75;;
9496;SDS011;4786;51.270;4.456;2022-08-21T15:25:57;7.88;;;2.90;;
9496;SDS011;4786;51.270;4.456;2022-08-21T15:28:23;8.20;;;2.90;;
9496;SDS011;4786;51.270;4.456;2022-08-21T15:30:50;11.13;;;2.90;;
9496;SDS011;4786;51.270;4.456;2022-08-21T15:33:17;5.95;;;2.75;;
9496;SDS011;4786;51.270;4.456;2022-08-21T15:35:43;7.93;;;2.80;;
9496;SDS011;4786;51.270;4.456;2022-08-21T15:38:11;6.45;;;2.42;;
9496;SDS011;4786;51.270;4.456;2022-08-21T15:40:38;5.78;;;2.60;;
9496;SDS011;4786;51.270;4.456;2022-08-21T15:43:06;6.90;;;2.97;;
9496;SDS011;4786;51.270;4.456;2022-08-21T15:45:34;4.90;;;2.50;;
9496;SDS011;4786;51.270;4.456;2022-08-21T15:48:00;7.63;;;3.05;;
9496;SDS011;4786;51.270;4.456;2022-08-21T15:50:26;6.70;;;2.90;;
9496;SDS011;4786;51.270;4.456;2022-08-21T15:52:54;6.95;;;2.97;;
9496;SDS011;4786;51.270;4.456;2022-08-21T15:55:20;4.32;;;2.22;;
9496;SDS011;4786;51.270;4.456;2022-08-21T15:57:47;5.47;;;2.67;;
9496;SDS011;4786;51.270;4.456;2022-08-21T16:00:18;4.60;;;2.58;;
9496;SDS011;4786;51.270;4.456;2022-08-21T16:02:48;8.68;;;2.95;;
9496;SDS011;4786;51.270;4.456;2022-08-21T16:05:17;6.28;;;2.75;;
9496;SDS011;4786;51.270;4.456;2022-08-21T16:07:43;7.03;;;2.75;;
9496;SDS011;4786;51.270;4.456;2022-08-21T16:10:11;5.65;;;2.95;;
9496;SDS011;4786;51.270;4.456;2022-08-21T16:12:40;4.72;;;2.58;;
9496;SDS011;4786;51.270;4.456;2022-08-21T16:15:11;7.00;;;2.75;;
9496;SDS011;4786;51.270;4.456;2022-08-21T16:17:38;7.68;;;2.85;;
9496;SDS011;4786;51.270;4.456;2022-08-21T16:20:07;6.05;;;2.70;;
9496;SDS011;4786;51.270;4.456;2022-08-21T16:22:35;6.75;;;2.83;;
9496;SDS011;4786;51.270;4.456;2022-08-21T16:25:02;8.75;;;3.13;;
9496;SDS011;4786;51.270;4.456;2022-08-21T16:27:29;5.93;;;2.67;;
9496;SDS011;4786;51.270;4.456;2022-08-21T16:29:54;6.15;;;2.70;;
9496;SDS011;4786;51.270;4.456;2022-08-21T16:32:20;4.93;;;2.65;;
9496;SDS011;4786;51.270;4.456;2022-08-21T16:34:47;4.18;;;2.42;;
9496;SDS011;4786;51.270;4.456;2022-08-21T16:37:14;7.85;;;2.85;;
9496;SDS011;4786;51.270;4.456;2022-08-21T16:39:41;6.13;;;2.50;;
9496;SDS011;4786;51.270;4.456;2022-08-21T16:42:08;8.13;;;2.80;;
9496;SDS011;4786;51.270;4.456;2022-08-21T16:44:40;7.40;;;2.65;;
9496;SDS011;4786;51.270;4.456;2022-08-21T16:47:06;8.23;;;2.80;;
9496;SDS011;4786;51.270;4.456;2022-08-21T16:49:32;8.70;;;2.40;;
9496;SDS011;4786;51.270;4.456;2022-08-21T16:51:59;8.27;;;3.00;;
9496;SDS011;4786;51.270;4.456;2022-08-21T16:54:24;7.32;;;2.53;;
9496;SDS011;4786;51.270;4.456;2022-08-21T16:56:51;5.57;;;2.42;;
9496;SDS011;4786;51.270;4.456;2022-08-21T16:59:17;5.57;;;2.50;;